sensor_id;sensor_type;location;lat;lon;timestamp;pressure;altitude;pressure_sealevel;temperature;humidity
36242;BME280;22283;42.748;12.732;2023-02-15T00:02:29;99437.69;;;0.72;93.00
36242;BME280;22283;42.748;12.732;2023-02-15T00:07:30;99429.84;;;0.74;92.42
36242;BME280;22283;42.748;12.732;2023-02-15T00:12:31;99429.91;;;0.69;91.43
36242;BME280;22283;42.748;12.732;2023-02-15T00:17:31;99425.66;;;0.62;91.46
36242;BME280;22283;42.748;12.732;2023-02-15T00:22:32;99438.81;;;0.50;91.83
36242;BME280;22283;42.748;12.732;2023-02-15T00:27:33;99435.41;;;0.48;91.75
36242;BME280;22283;42.748;12.732;2023-02-15T00:32:36;99441.50;;;0.42;92.55
36242;BME280;22283;42.748;12.732;2023-02-15T00:37:37;99441.53;;;0.39;91.55
36242;BME280;22283;42.748;12.732;2023-02-15T00:42:37;99434.84;;;0.20;91.79
36242;BME280;22283;42.748;12.732;2023-02-15T00:47:38;99428.81;;;0.12;93.20
36242;BME280;22283;42.748;12.732;2023-02-15T00:52:39;99437.50;;;0.14;93.71
36242;BME280;22283;42.748;12.732;2023-02-15T00:57:39;99432.31;;;0.11;93.45
36242;BME280;22283;42.748;12.732;2023-02-15T01:02:40;99432.25;;;0.15;93.82
36242;BME280;22283;42.748;12.732;2023-02-15T01:07:41;99426.16;;;0.21;95.21
36242;BME280;22283;42.748;12.732;2023-02-15T01:12:41;99423.47;;;0.29;93.81
36242;BME280;22283;42.748;12.732;2023-02-15T01:17:42;99435.81;;;0.08;93.62
36242;BME280;22283;42.748;12.732;2023-02-15T01:22:46;99430.66;;;0.02;95.65
36242;BME280;22283;42.748;12.732;2023-02-15T01:27:47;99416.06;;;-0.11;95.68
36242;BME280;22283;42.748;12.732;2023-02-15T01:32:48;99412.66;;;-0.21;95.52
36242;BME280;22283;42.748;12.732;2023-02-15T01:37:48;99397.91;;;-0.20;95.95
36242;BME280;22283;42.748;12.732;2023-02-15T01:42:53;99391.97;;;-0.33;95.79
36242;BME280;22283;42.748;12.732;2023-02-15T01:48:19;99404.06;;;-0.29;95.30
36242;BME280;22283;42.748;12.732;2023-02-15T01:53:26;99402.28;;;-0.24;98.24
36242;BME280;22283;42.748;12.732;2023-02-15T01:58:29;99392.81;;;-0.30;99.07
36242;BME280;22283;42.748;12.732;2023-02-15T02:08:50;99372.16;;;-0.43;94.39
36242;BME280;22283;42.748;12.732;2023-02-15T02:13:53;99380.09;;;-0.62;95.46
36242;BME280;22283;42.748;12.732;2023-02-15T02:40:42;99386.25;;;-0.70;95.66
36242;BME280;22283;42.748;12.732;2023-02-15T02:45:57;99369.00;;;-0.82;95.75
36242;BME280;22283;42.748;12.732;2023-02-15T02:50:59;99349.22;;;-1.02;96.68
36242;BME280;22283;42.748;12.732;2023-02-15T02:56:15;99375.09;;;-0.89;96.94
36242;BME280;22283;42.748;12.732;2023-02-15T03:01:32;99368.25;;;-1.00;96.00
36242;BME280;22283;42.748;12.732;2023-02-15T03:06:42;99370.88;;;-1.03;97.50
36242;BME280;22283;42.748;12.732;2023-02-15T03:11:47;99382.19;;;-1.16;98.95
36242;BME280;22283;42.748;12.732;2023-02-15T03:16:50;99370.06;;;-1.09;100.00
36242;BME280;22283;42.748;12.732;2023-02-15T03:21:56;99357.94;;;-1.09;100.00
36242;BME280;22283;42.748;12.732;2023-02-15T03:27:10;99373.53;;;-1.15;100.00
36242;BME280;22283;42.748;12.732;2023-02-15T03:32:13;99350.19;;;-1.16;100.00
36242;BME280;22283;42.748;12.732;2023-02-15T03:37:47;99370.06;;;-1.11;100.00
36242;BME280;22283;42.748;12.732;2023-02-15T03:42:58;99361.50;;;-1.28;100.00
36242;BME280;22283;42.748;12.732;2023-02-15T03:48:02;99376.19;;;-1.21;100.00
36242;BME280;22283;42.748;12.732;2023-02-15T03:53:06;99381.41;;;-1.26;99.45
36242;BME280;22283;42.748;12.732;2023-02-15T03:58:08;99364.97;;;-1.29;98.86
36242;BME280;22283;42.748;12.732;2023-02-15T04:03:39;99379.59;;;-1.16;97.89
36242;BME280;22283;42.748;12.732;2023-02-15T04:08:41;99370.94;;;-1.15;97.72
36242;BME280;22283;42.748;12.732;2023-02-15T04:14:00;99358.06;;;-1.35;99.88
36242;BME280;22283;42.748;12.732;2023-02-15T04:19:21;99362.44;;;-1.43;100.00
36242;BME280;22283;42.748;12.732;2023-02-15T04:24:40;99360.78;;;-1.50;98.52
36242;BME280;22283;42.748;12.732;2023-02-15T04:29:59;99380.63;;;-1.44;96.88
36242;BME280;22283;42.748;12.732;2023-02-15T04:35:00;99372.13;;;-1.73;98.08
36242;BME280;22283;42.748;12.732;2023-02-15T04:40:01;99366.06;;;-1.70;100.00
36242;BME280;22283;42.748;12.732;2023-02-15T04:45:02;99372.84;;;-1.38;98.54
36242;BME280;22283;42.748;12.732;2023-02-15T04:50:03;99377.22;;;-1.50;95.83
36242;BME280;22283;42.748;12.732;2023-02-15T04:55:04;99372.13;;;-1.83;99.50
36242;BME280;22283;42.748;12.732;2023-02-15T05:00:05;99382.56;;;-1.92;100.00
36242;BME280;22283;42.748;12.732;2023-02-15T05:05:06;99383.44;;;-2.01;100.00
36242;BME280;22283;42.748;12.732;2023-02-15T05:10:09;99379.94;;;-1.85;100.00
36242;BME280;22283;42.748;12.732;2023-02-15T05:15:10;99379.94;;;-1.91;100.00
36242;BME280;22283;42.748;12.732;2023-02-15T05:20:11;99365.31;;;-2.15;100.00
36242;BME280;22283;42.748;12.732;2023-02-15T05:25:12;99374.84;;;-2.17;100.00
36242;BME280;22283;42.748;12.732;2023-02-15T05:30:31;99383.47;;;-2.19;100.00
36242;BME280;22283;42.748;12.732;2023-02-15T05:35:33;99382.59;;;-2.14;100.00
36242;BME280;22283;42.748;12.732;2023-02-15T05:40:34;99378.28;;;-2.15;100.00
36242;BME280;22283;42.748;12.732;2023-02-15T05:45:34;99383.44;;;-2.04;100.00
36242;BME280;22283;42.748;12.732;2023-02-15T05:50:35;99380.88;;;-2.18;100.00
36242;BME280;22283;42.748;12.732;2023-02-15T05:55:40;99384.34;;;-2.16;100.00
36242;BME280;22283;42.748;12.732;2023-02-15T06:00:40;99390.38;;;-2.14;100.00
36242;BME280;22283;42.748;12.732;2023-02-15T06:05:41;99386.09;;;-2.21;100.00
36242;BME280;22283;42.748;12.732;2023-02-15T06:10:42;99397.31;;;-2.24;100.00
36242;BME280;22283;42.748;12.732;2023-02-15T06:15:43;99402.50;;;-2.19;100.00
36242;BME280;22283;42.748;12.732;2023-02-15T06:20:45;99405.09;;;-2.19;100.00
36242;BME280;22283;42.748;12.732;2023-02-15T06:25:46;99401.63;;;-2.15;100.00
36242;BME280;22283;42.748;12.732;2023-02-15T06:30:47;99398.13;;;-1.99;100.00
36242;BME280;22283;42.748;12.732;2023-02-15T06:35:48;99397.28;;;-1.98;100.00
36242;BME280;22283;42.748;12.732;2023-02-15T06:40:48;99399.78;;;-1.76;100.00
36242;BME280;22283;42.748;12.732;2023-02-15T06:45:49;99403.28;;;-1.80;100.00
36242;BME280;22283;42.748;12.732;2023-02-15T06:50:49;99410.19;;;-1.79;100.00
36242;BME280;22283;42.748;12.732;2023-02-15T06:55:50;99392.78;;;-1.59;100.00
36242;BME280;22283;42.748;12.732;2023-02-15T07:00:51;99403.72;;;-0.95;100.00
36242;BME280;22283;42.748;12.732;2023-02-15T07:05:56;99397.16;;;-0.30;94.40
36242;BME280;22283;42.748;12.732;2023-02-15T07:10:57;99406.44;;;-0.03;92.98
36242;BME280;22283;42.748;12.732;2023-02-15T07:16:18;99397.41;;;0.30;90.97
36242;BME280;22283;42.748;12.732;2023-02-15T07:21:19;99400.44;;;0.66;86.08
36242;BME280;22283;42.748;12.732;2023-02-15T07:26:20;99392.13;;;1.01;77.34
36242;BME280;22283;42.748;12.732;2023-02-15T07:31:20;99396.06;;;1.30;79.82
36242;BME280;22283;42.748;12.732;2023-02-15T07:36:21;99402.69;;;1.51;81.97
36242;BME280;22283;42.748;12.732;2023-02-15T07:41:21;99399.75;;;1.69;82.54
36242;BME280;22283;42.748;12.732;2023-02-15T07:46:23;99389.91;;;1.85;83.67
36242;BME280;22283;42.748;12.732;2023-02-15T07:51:24;99388.59;;;2.09;80.72
36242;BME280;22283;42.748;12.732;2023-02-15T07:56:25;99389.03;;;2.32;77.79
36242;BME280;22283;42.748;12.732;2023-02-15T08:01:37;99382.34;;;2.62;76.05
36242;BME280;22283;42.748;12.732;2023-02-15T08:06:38;99390.44;;;2.90;74.51
36242;BME280;22283;42.748;12.732;2023-02-15T08:11:38;99375.03;;;3.15;73.44
36242;BME280;22283;42.748;12.732;2023-02-15T08:16:47;99384.13;;;3.36;72.30
36242;BME280;22283;42.748;12.732;2023-02-15T08:21:50;99378.22;;;3.64;69.89
36242;BME280;22283;42.748;12.732;2023-02-15T08:26:52;99384.66;;;3.86;70.03
36242;BME280;22283;42.748;12.732;2023-02-15T08:31:54;99378.81;;;4.09;69.01
36242;BME280;22283;42.748;12.732;2023-02-15T08:36:56;99385.00;;;4.38;68.34
36242;BME280;22283;42.748;12.732;2023-02-15T08:41:57;99386.34;;;4.53;67.82
36242;BME280;22283;42.748;12.732;2023-02-15T08:46:58;99386.53;;;4.76;67.09
36242;BME280;22283;42.748;12.732;2023-02-15T08:52:04;99397.00;;;5.06;65.95
36242;BME280;22283;42.748;12.732;2023-02-15T08:57:04;99394.81;;;5.20;63.19
36242;BME280;22283;42.748;12.732;2023-02-15T09:02:09;99407.06;;;5.48;61.17
36242;BME280;22283;42.748;12.732;2023-02-15T09:07:10;99395.94;;;5.66;59.88
36242;BME280;22283;42.748;12.732;2023-02-15T09:12:12;99401.41;;;5.86;58.77
36242;BME280;22283;42.748;12.732;2023-02-15T09:17:12;99399.75;;;6.10;57.98
36242;BME280;22283;42.748;12.732;2023-02-15T09:22:18;99400.41;;;6.40;56.50
36242;BME280;22283;42.748;12.732;2023-02-15T09:27:23;99405.94;;;6.58;55.52
36242;BME280;22283;42.748;12.732;2023-02-15T09:32:24;99390.28;;;6.78;55.17
36242;BME280;22283;42.748;12.732;2023-02-15T09:37:24;99388.41;;;7.04;54.09
36242;BME280;22283;42.748;12.732;2023-02-15T10:25:35;99394.50;;;8.53;54.27
36242;BME280;22283;42.748;12.732;2023-02-15T10:35:51;99400.34;;;8.80;52.83
36242;BME280;22283;42.748;12.732;2023-02-15T10:46:48;99384.34;;;9.02;51.89
36242;BME280;22283;42.748;12.732;2023-02-15T11:02:38;99385.44;;;9.53;48.72
36242;BME280;22283;42.748;12.732;2023-02-15T11:07:45;99379.16;;;9.73;48.53
36242;BME280;22283;42.748;12.732;2023-02-15T11:12:48;99374.91;;;9.88;47.68
36242;BME280;22283;42.748;12.732;2023-02-15T11:17:58;99357.25;;;10.06;47.26
36242;BME280;22283;42.748;12.732;2023-02-15T11:23:01;99342.78;;;10.30;46.61
36242;BME280;22283;42.748;12.732;2023-02-15T11:28:04;99338.66;;;10.58;45.84
36242;BME280;22283;42.748;12.732;2023-02-15T11:33:16;99326.75;;;10.82;45.23
36242;BME280;22283;42.748;12.732;2023-02-15T11:38:20;99327.50;;;11.00;44.63
36242;BME280;22283;42.748;12.732;2023-02-15T11:43:35;99317.31;;;11.24;43.97
36242;BME280;22283;42.748;12.732;2023-02-15T11:48:38;99318.34;;;11.38;44.10
36242;BME280;22283;42.748;12.732;2023-02-15T11:53:40;99309.91;;;11.61;43.30
36242;BME280;22283;42.748;12.732;2023-02-15T11:58:58;99295.22;;;11.86;42.24
36242;BME280;22283;42.748;12.732;2023-02-15T12:04:18;99290.50;;;11.91;41.56
36242;BME280;22283;42.748;12.732;2023-02-15T12:09:37;99286.91;;;12.06;41.35
36242;BME280;22283;42.748;12.732;2023-02-15T12:14:52;99280.69;;;12.21;41.00
36242;BME280;22283;42.748;12.732;2023-02-15T12:19:56;99272.16;;;12.45;40.61
36242;BME280;22283;42.748;12.732;2023-02-15T12:25:01;99267.94;;;12.69;39.41
36242;BME280;22283;42.748;12.732;2023-02-15T12:30:32;99263.75;;;12.79;38.71
36242;BME280;22283;42.748;12.732;2023-02-15T12:35:35;99246.38;;;12.88;38.59
36242;BME280;22283;42.748;12.732;2023-02-15T12:40:37;99247.72;;;13.08;37.62
36242;BME280;22283;42.748;12.732;2023-02-15T12:45:38;99239.13;;;13.17;37.68
36242;BME280;22283;42.748;12.732;2023-02-15T12:50:40;99233.34;;;13.25;35.24
36242;BME280;22283;42.748;12.732;2023-02-15T13:06:03;99204.28;;;13.62;34.54
36242;BME280;22283;42.748;12.732;2023-02-15T13:11:11;99191.63;;;13.91;32.91
36242;BME280;22283;42.748;12.732;2023-02-15T13:16:13;99184.94;;;13.98;32.10
36242;BME280;22283;42.748;12.732;2023-02-15T13:21:16;99184.06;;;14.10;31.34
36242;BME280;22283;42.748;12.732;2023-02-15T13:26:21;99180.00;;;14.17;30.79
36242;BME280;22283;42.748;12.732;2023-02-15T13:31:27;99176.34;;;14.31;31.02
36242;BME280;22283;42.748;12.732;2023-02-15T14:14:04;99177.13;;;14.94;28.90
36242;BME280;22283;42.748;12.732;2023-02-15T14:19:19;99169.41;;;15.02;29.47
36242;BME280;22283;42.748;12.732;2023-02-15T14:24:51;99161.34;;;15.15;28.40
36242;BME280;22283;42.748;12.732;2023-02-15T14:30:09;99158.25;;;14.97;27.57
36242;BME280;22283;42.748;12.732;2023-02-15T14:35:31;99147.19;;;14.90;27.29
36242;BME280;22283;42.748;12.732;2023-02-15T14:40:58;99158.25;;;14.97;26.88
36242;BME280;22283;42.748;12.732;2023-02-15T14:51:55;99155.38;;;15.11;27.89
36242;BME280;22283;42.748;12.732;2023-02-15T15:07:17;99160.22;;;14.82;28.97
36242;BME280;22283;42.748;12.732;2023-02-15T15:22:33;99153.59;;;14.27;30.94
36242;BME280;22283;42.748;12.732;2023-02-15T15:27:48;99151.44;;;13.83;32.00
36242;BME280;22283;42.748;12.732;2023-02-15T15:49:08;99169.38;;;12.47;36.24
36242;BME280;22283;42.748;12.732;2023-02-15T15:54:22;99170.56;;;12.14;37.46
36242;BME280;22283;42.748;12.732;2023-02-15T15:59:26;99179.09;;;11.76;39.26
36242;BME280;22283;42.748;12.732;2023-02-15T16:04:31;99182.06;;;11.42;40.43
36242;BME280;22283;42.748;12.732;2023-02-15T16:09:32;99178.97;;;11.05;41.77
36242;BME280;22283;42.748;12.732;2023-02-15T16:14:37;99173.91;;;10.70;43.29
36242;BME280;22283;42.748;12.732;2023-02-15T16:19:41;99174.09;;;10.36;43.88
36242;BME280;22283;42.748;12.732;2023-02-15T16:29:46;99184.09;;;9.64;45.25
36242;BME280;22283;42.748;12.732;2023-02-15T16:39:57;99189.41;;;9.12;46.64
36242;BME280;22283;42.748;12.732;2023-02-15T16:45:05;99197.44;;;8.74;47.43
36242;BME280;22283;42.748;12.732;2023-02-15T16:50:18;99204.69;;;8.52;47.92
36242;BME280;22283;42.748;12.732;2023-02-15T16:55:25;99224.53;;;8.21;48.34
36242;BME280;22283;42.748;12.732;2023-02-15T17:00:29;99226.44;;;7.99;48.97
36242;BME280;22283;42.748;12.732;2023-02-15T17:05:40;99223.72;;;7.81;48.85
36242;BME280;22283;42.748;12.732;2023-02-15T17:10:44;99226.13;;;7.86;49.14
36242;BME280;22283;42.748;12.732;2023-02-15T17:16:09;99226.09;;;7.67;49.71
36242;BME280;22283;42.748;12.732;2023-02-15T17:21:24;99234.00;;;7.47;50.33
36242;BME280;22283;42.748;12.732;2023-02-15T17:26:35;99240.44;;;7.19;51.12
36242;BME280;22283;42.748;12.732;2023-02-15T17:31:37;99232.94;;;7.51;49.90
36242;BME280;22283;42.748;12.732;2023-02-15T17:36:56;99248.34;;;7.80;49.10
36242;BME280;22283;42.748;12.732;2023-02-15T17:41:57;99239.03;;;7.72;49.01
36242;BME280;22283;42.748;12.732;2023-02-15T17:46:58;99235.25;;;7.58;49.35
36242;BME280;22283;42.748;12.732;2023-02-15T17:52:02;99237.34;;;7.30;49.55
36242;BME280;22283;42.748;12.732;2023-02-15T17:57:10;99258.44;;;7.08;49.52
36242;BME280;22283;42.748;12.732;2023-02-15T18:02:15;99262.00;;;7.07;49.44
36242;BME280;22283;42.748;12.732;2023-02-15T18:07:35;99269.47;;;6.96;49.60
36242;BME280;22283;42.748;12.732;2023-02-15T18:12:54;99271.31;;;6.94;49.39
36242;BME280;22283;42.748;12.732;2023-02-15T18:17:55;99276.34;;;7.20;48.61
36242;BME280;22283;42.748;12.732;2023-02-15T18:22:56;99287.06;;;7.15;48.89
36242;BME280;22283;42.748;12.732;2023-02-15T18:27:57;99287.25;;;7.11;49.20
36242;BME280;22283;42.748;12.732;2023-02-15T18:32:58;99270.72;;;7.29;48.43
36242;BME280;22283;42.748;12.732;2023-02-15T18:38:01;99280.03;;;7.16;49.28
36242;BME280;22283;42.748;12.732;2023-02-15T18:43:01;99292.44;;;6.69;50.25
36242;BME280;22283;42.748;12.732;2023-02-15T18:48:02;99298.25;;;6.55;50.76
36242;BME280;22283;42.748;12.732;2023-02-15T18:53:05;99306.63;;;6.41;50.75
36242;BME280;22283;42.748;12.732;2023-02-15T18:58:14;99300.59;;;6.84;49.87
36242;BME280;22283;42.748;12.732;2023-02-15T19:03:16;99306.34;;;6.49;50.93
36242;BME280;22283;42.748;12.732;2023-02-15T19:08:20;99311.97;;;6.39;51.49
36242;BME280;22283;42.748;12.732;2023-02-15T19:13:23;99330.94;;;6.48;51.67
36242;BME280;22283;42.748;12.732;2023-02-15T19:18:24;99323.72;;;6.29;51.97
36242;BME280;22283;42.748;12.732;2023-02-15T19:23:26;99329.06;;;6.03;53.07
36242;BME280;22283;42.748;12.732;2023-02-15T19:28:31;99344.06;;;5.74;53.77
36242;BME280;22283;42.748;12.732;2023-02-15T19:33:33;99342.28;;;5.48;55.21
36242;BME280;22283;42.748;12.732;2023-02-15T19:38:34;99346.09;;;5.39;55.94
36242;BME280;22283;42.748;12.732;2023-02-15T19:43:36;99346.19;;;5.63;55.62
36242;BME280;22283;42.748;12.732;2023-02-15T19:48:37;99352.72;;;5.76;55.80
36242;BME280;22283;42.748;12.732;2023-02-15T19:53:38;99358.47;;;5.87;55.51
36242;BME280;22283;42.748;12.732;2023-02-15T19:58:39;99347.91;;;5.89;55.80
36242;BME280;22283;42.748;12.732;2023-02-15T20:03:40;99353.50;;;6.05;55.59
36242;BME280;22283;42.748;12.732;2023-02-15T20:08:41;99351.38;;;6.16;54.99
36242;BME280;22283;42.748;12.732;2023-02-15T20:13:42;99351.22;;;5.96;55.86
36242;BME280;22283;42.748;12.732;2023-02-15T20:18:43;99351.53;;;5.85;56.27
36242;BME280;22283;42.748;12.732;2023-02-15T20:23:45;99352.53;;;5.82;56.49
36242;BME280;22283;42.748;12.732;2023-02-15T20:28:46;99348.59;;;5.96;56.21
36242;BME280;22283;42.748;12.732;2023-02-15T20:33:48;99346.44;;;6.07;55.76
36242;BME280;22283;42.748;12.732;2023-02-15T20:38:48;99347.81;;;6.17;56.59
36242;BME280;22283;42.748;12.732;2023-02-15T20:43:49;99343.09;;;6.27;56.25
36242;BME280;22283;42.748;12.732;2023-02-15T20:48:50;99345.56;;;6.31;56.03
36242;BME280;22283;42.748;12.732;2023-02-15T20:53:51;99347.66;;;5.97;57.39
36242;BME280;22283;42.748;12.732;2023-02-15T20:58:52;99353.75;;;5.99;58.22
36242;BME280;22283;42.748;12.732;2023-02-15T21:03:53;99359.50;;;6.33;57.72
36242;BME280;22283;42.748;12.732;2023-02-15T21:08:54;99363.06;;;6.56;56.46
36242;BME280;22283;42.748;12.732;2023-02-15T21:13:54;99372.97;;;6.24;56.74
36242;BME280;22283;42.748;12.732;2023-02-15T21:18:55;99375.66;;;5.98;57.72
36242;BME280;22283;42.748;12.732;2023-02-15T21:23:57;99393.38;;;5.64;59.43
36242;BME280;22283;42.748;12.732;2023-02-15T21:28:58;99382.84;;;5.39;60.90
36242;BME280;22283;42.748;12.732;2023-02-15T21:33:58;99380.88;;;5.18;62.58
36242;BME280;22283;42.748;12.732;2023-02-15T21:38:59;99387.88;;;5.17;63.34
36242;BME280;22283;42.748;12.732;2023-02-15T21:44:01;99389.84;;;5.11;64.42
36242;BME280;22283;42.748;12.732;2023-02-15T21:49:20;99396.44;;;4.94;65.73
36242;BME280;22283;42.748;12.732;2023-02-15T21:54:21;99394.94;;;4.87;66.13
36242;BME280;22283;42.748;12.732;2023-02-15T21:59:21;99409.41;;;5.01;66.07
36242;BME280;22283;42.748;12.732;2023-02-15T22:04:25;99410.84;;;5.11;65.77
36242;BME280;22283;42.748;12.732;2023-02-15T22:09:26;99409.47;;;4.98;66.57
36242;BME280;22283;42.748;12.732;2023-02-15T22:14:38;99413.19;;;4.90;67.82
36242;BME280;22283;42.748;12.732;2023-02-15T22:19:39;99407.66;;;4.70;69.40
36242;BME280;22283;42.748;12.732;2023-02-15T22:24:40;99420.41;;;4.82;69.09
36242;BME280;22283;42.748;12.732;2023-02-15T22:29:41;99412.13;;;4.68;69.69
36242;BME280;22283;42.748;12.732;2023-02-15T22:34:41;99410.44;;;4.65;70.32
36242;BME280;22283;42.748;12.732;2023-02-15T22:39:42;99411.19;;;4.69;69.81
36242;BME280;22283;42.748;12.732;2023-02-15T22:44:43;99413.75;;;4.39;71.84
36242;BME280;22283;42.748;12.732;2023-02-15T22:49:43;99425.03;;;4.12;73.51
36242;BME280;22283;42.748;12.732;2023-02-15T22:54:44;99426.22;;;3.99;74.32
36242;BME280;22283;42.748;12.732;2023-02-15T22:59:45;99426.59;;;3.83;75.41
36242;BME280;22283;42.748;12.732;2023-02-15T23:04:46;99432.16;;;3.71;76.42
36242;BME280;22283;42.748;12.732;2023-02-15T23:09:47;99427.16;;;3.62;76.92
36242;BME280;22283;42.748;12.732;2023-02-15T23:14:48;99431.59;;;3.58;77.12
36242;BME280;22283;42.748;12.732;2023-02-15T23:19:49;99427.56;;;3.45;78.05
36242;BME280;22283;42.748;12.732;2023-02-15T23:24:51;99422.69;;;3.28;80.30
36242;BME280;22283;42.748;12.732;2023-02-15T23:29:52;99422.69;;;3.28;80.46
36242;BME280;22283;42.748;12.732;2023-02-15T23:34:55;99422.91;;;3.19;81.27
36242;BME280;22283;42.748;12.732;2023-02-15T23:39:56;99433.72;;;3.04;83.05
36242;BME280;22283;42.748;12.732;2023-02-15T23:45:21;99432.91;;;3.00;83.96
36242;BME280;22283;42.748;12.732;2023-02-15T23:50:25;99439.63;;;3.12;83.29
36242;BME280;22283;42.748;12.732;2023-02-15T23:55:35;99440.81;;;2.99;84.38
